sensor_id;sensor_type;location;lat;lon;timestamp;temperature;humidity
36850;DHT22;22783;51.034;3.726;2022-07-21T00:01:24;20.20;96.10
36850;DHT22;22783;51.034;3.726;2022-07-21T00:03:50;20.20;96.20
36850;DHT22;22783;51.034;3.726;2022-07-21T00:06:16;20.20;96.20
36850;DHT22;22783;51.034;3.726;2022-07-21T00:08:41;20.20;96.20
36850;DHT22;22783;51.034;3.726;2022-07-21T00:11:07;20.20;96.30
36850;DHT22;22783;51.034;3.726;2022-07-21T00:13:33;20.20;96.30
36850;DHT22;22783;51.034;3.726;2022-07-21T00:15:59;20.20;96.30
36850;DHT22;22783;51.034;3.726;2022-07-21T00:18:26;20.10;96.40
36850;DHT22;22783;51.034;3.726;2022-07-21T00:20:55;20.10;96.60
36850;DHT22;22783;51.034;3.726;2022-07-21T00:23:23;20.10;96.60
36850;DHT22;22783;51.034;3.726;2022-07-21T00:25:50;20.10;96.60
36850;DHT22;22783;51.034;3.726;2022-07-21T00:28:16;20.10;96.60
36850;DHT22;22783;51.034;3.726;2022-07-21T00:30:41;20.00;96.70
36850;DHT22;22783;51.034;3.726;2022-07-21T00:33:07;20.00;96.80
36850;DHT22;22783;51.034;3.726;2022-07-21T00:35:33;19.90;96.90
36850;DHT22;22783;51.034;3.726;2022-07-21T00:37:58;19.90;97.20
36850;DHT22;22783;51.034;3.726;2022-07-21T00:40:24;19.80;97.20
36850;DHT22;22783;51.034;3.726;2022-07-21T00:42:50;19.70;97.40
36850;DHT22;22783;51.034;3.726;2022-07-21T00:45:16;19.70;97.60
36850;DHT22;22783;51.034;3.726;2022-07-21T00:47:42;19.60;97.70
36850;DHT22;22783;51.034;3.726;2022-07-21T00:50:12;19.60;97.90
36850;DHT22;22783;51.034;3.726;2022-07-21T00:52:38;19.60;97.90
36850;DHT22;22783;51.034;3.726;2022-07-21T00:55:07;19.60;98.00
36850;DHT22;22783;51.034;3.726;2022-07-21T00:57:36;19.50;98.10
36850;DHT22;22783;51.034;3.726;2022-07-21T01:00:08;19.50;98.20
36850;DHT22;22783;51.034;3.726;2022-07-21T01:02:34;19.50;98.20
36850;DHT22;22783;51.034;3.726;2022-07-21T01:05:05;19.50;98.20
36850;DHT22;22783;51.034;3.726;2022-07-21T01:07:31;19.60;98.10
36850;DHT22;22783;51.034;3.726;2022-07-21T01:09:57;19.60;98.10
36850;DHT22;22783;51.034;3.726;2022-07-21T01:12:23;19.50;98.10
36850;DHT22;22783;51.034;3.726;2022-07-21T01:14:49;19.60;98.10
36850;DHT22;22783;51.034;3.726;2022-07-21T01:17:16;19.60;98.10
36850;DHT22;22783;51.034;3.726;2022-07-21T01:19:42;19.60;98.10
36850;DHT22;22783;51.034;3.726;2022-07-21T01:22:08;19.60;98.10
36850;DHT22;22783;51.034;3.726;2022-07-21T01:24:34;19.60;98.00
36850;DHT22;22783;51.034;3.726;2022-07-21T01:27:00;19.70;98.00
36850;DHT22;22783;51.034;3.726;2022-07-21T01:29:26;19.70;97.90
36850;DHT22;22783;51.034;3.726;2022-07-21T01:31:53;19.70;98.00
36850;DHT22;22783;51.034;3.726;2022-07-21T01:34:20;19.60;98.10
36850;DHT22;22783;51.034;3.726;2022-07-21T01:36:46;19.60;98.20
36850;DHT22;22783;51.034;3.726;2022-07-21T01:39:12;19.60;98.40
36850;DHT22;22783;51.034;3.726;2022-07-21T01:41:56;19.60;98.40
36850;DHT22;22783;51.034;3.726;2022-07-21T01:44:22;19.70;98.30
36850;DHT22;22783;51.034;3.726;2022-07-21T01:46:51;19.70;98.30
36850;DHT22;22783;51.034;3.726;2022-07-21T01:49:18;19.60;98.40
36850;DHT22;22783;51.034;3.726;2022-07-21T01:51:45;19.60;98.50
36850;DHT22;22783;51.034;3.726;2022-07-21T01:54:11;19.60;98.60
36850;DHT22;22783;51.034;3.726;2022-07-21T01:56:39;19.50;98.80
36850;DHT22;22783;51.034;3.726;2022-07-21T01:59:05;19.50;99.00
36850;DHT22;22783;51.034;3.726;2022-07-21T02:01:31;19.50;99.10
36850;DHT22;22783;51.034;3.726;2022-07-21T02:04:00;19.50;99.20
36850;DHT22;22783;51.034;3.726;2022-07-21T02:06:26;19.50;99.20
36850;DHT22;22783;51.034;3.726;2022-07-21T02:08:53;19.40;99.30
36850;DHT22;22783;51.034;3.726;2022-07-21T02:11:19;19.40;99.40
36850;DHT22;22783;51.034;3.726;2022-07-21T02:13:47;19.50;99.40
36850;DHT22;22783;51.034;3.726;2022-07-21T02:16:13;19.50;99.30
36850;DHT22;22783;51.034;3.726;2022-07-21T02:18:40;19.50;99.10
36850;DHT22;22783;51.034;3.726;2022-07-21T02:21:06;19.60;99.10
36850;DHT22;22783;51.034;3.726;2022-07-21T02:23:32;19.60;99.10
36850;DHT22;22783;51.034;3.726;2022-07-21T02:25:58;19.60;99.10
36850;DHT22;22783;51.034;3.726;2022-07-21T02:28:25;19.60;99.10
36850;DHT22;22783;51.034;3.726;2022-07-21T02:30:52;19.60;99.10
36850;DHT22;22783;51.034;3.726;2022-07-21T02:33:18;19.60;99.10
36850;DHT22;22783;51.034;3.726;2022-07-21T02:35:44;19.60;99.10
36850;DHT22;22783;51.034;3.726;2022-07-21T02:38:11;19.60;99.10
36850;DHT22;22783;51.034;3.726;2022-07-21T02:40:37;19.60;99.00
36850;DHT22;22783;51.034;3.726;2022-07-21T02:43:04;19.60;98.90
36850;DHT22;22783;51.034;3.726;2022-07-21T02:45:31;19.60;99.00
36850;DHT22;22783;51.034;3.726;2022-07-21T02:48:02;19.60;99.10
36850;DHT22;22783;51.034;3.726;2022-07-21T02:50:30;19.60;99.20
36850;DHT22;22783;51.034;3.726;2022-07-21T02:53:00;19.50;99.40
36850;DHT22;22783;51.034;3.726;2022-07-21T02:55:26;19.60;99.20
36850;DHT22;22783;51.034;3.726;2022-07-21T02:58:07;19.60;99.40
36850;DHT22;22783;51.034;3.726;2022-07-21T03:00:38;19.50;99.30
36850;DHT22;22783;51.034;3.726;2022-07-21T03:03:04;19.50;99.30
36850;DHT22;22783;51.034;3.726;2022-07-21T03:05:32;19.50;99.50
36850;DHT22;22783;51.034;3.726;2022-07-21T03:07:57;19.50;99.50
36850;DHT22;22783;51.034;3.726;2022-07-21T03:10:23;19.50;99.40
36850;DHT22;22783;51.034;3.726;2022-07-21T03:12:49;19.50;99.50
36850;DHT22;22783;51.034;3.726;2022-07-21T03:15:15;19.50;99.50
36850;DHT22;22783;51.034;3.726;2022-07-21T03:17:41;19.60;99.40
36850;DHT22;22783;51.034;3.726;2022-07-21T03:20:07;19.60;99.40
36850;DHT22;22783;51.034;3.726;2022-07-21T03:22:34;19.60;99.40
36850;DHT22;22783;51.034;3.726;2022-07-21T03:24:59;19.60;99.50
36850;DHT22;22783;51.034;3.726;2022-07-21T03:27:25;19.60;99.50
36850;DHT22;22783;51.034;3.726;2022-07-21T03:29:52;19.60;99.60
36850;DHT22;22783;51.034;3.726;2022-07-21T03:32:18;19.60;99.80
36850;DHT22;22783;51.034;3.726;2022-07-21T03:34:44;19.60;99.70
36850;DHT22;22783;51.034;3.726;2022-07-21T03:37:11;19.60;99.60
36850;DHT22;22783;51.034;3.726;2022-07-21T03:39:37;19.60;99.60
36850;DHT22;22783;51.034;3.726;2022-07-21T03:42:03;19.60;99.60
36850;DHT22;22783;51.034;3.726;2022-07-21T03:44:28;19.60;99.70
36850;DHT22;22783;51.034;3.726;2022-07-21T03:46:54;19.60;99.90
36850;DHT22;22783;51.034;3.726;2022-07-21T03:49:21;19.60;99.90
36850;DHT22;22783;51.034;3.726;2022-07-21T03:51:48;19.50;99.90
36850;DHT22;22783;51.034;3.726;2022-07-21T03:54:14;19.50;99.90
36850;DHT22;22783;51.034;3.726;2022-07-21T03:56:39;19.40;99.90
36850;DHT22;22783;51.034;3.726;2022-07-21T03:59:05;19.40;99.90
36850;DHT22;22783;51.034;3.726;2022-07-21T04:01:31;19.30;99.90
36850;DHT22;22783;51.034;3.726;2022-07-21T04:03:56;19.20;99.90
36850;DHT22;22783;51.034;3.726;2022-07-21T04:06:22;19.20;99.90
36850;DHT22;22783;51.034;3.726;2022-07-21T04:08:48;19.20;99.90
36850;DHT22;22783;51.034;3.726;2022-07-21T04:11:13;19.30;99.90
36850;DHT22;22783;51.034;3.726;2022-07-21T04:13:39;19.30;99.90
36850;DHT22;22783;51.034;3.726;2022-07-21T04:16:05;19.30;99.90
36850;DHT22;22783;51.034;3.726;2022-07-21T04:18:31;19.20;99.90
36850;DHT22;22783;51.034;3.726;2022-07-21T04:20:56;19.20;99.90
36850;DHT22;22783;51.034;3.726;2022-07-21T04:23:22;19.20;99.90
36850;DHT22;22783;51.034;3.726;2022-07-21T04:25:48;19.10;99.90
36850;DHT22;22783;51.034;3.726;2022-07-21T04:28:14;19.10;99.90
36850;DHT22;22783;51.034;3.726;2022-07-21T04:30:39;19.30;99.90
36850;DHT22;22783;51.034;3.726;2022-07-21T04:33:05;19.30;99.90
36850;DHT22;22783;51.034;3.726;2022-07-21T04:35:32;19.40;99.90
36850;DHT22;22783;51.034;3.726;2022-07-21T04:37:57;19.30;99.90
36850;DHT22;22783;51.034;3.726;2022-07-21T04:40:23;19.30;99.90
36850;DHT22;22783;51.034;3.726;2022-07-21T04:42:49;19.30;99.90
36850;DHT22;22783;51.034;3.726;2022-07-21T04:45:16;19.20;99.90
36850;DHT22;22783;51.034;3.726;2022-07-21T04:50:09;19.30;99.90
36850;DHT22;22783;51.034;3.726;2022-07-21T04:52:35;19.30;99.90
36850;DHT22;22783;51.034;3.726;2022-07-21T04:55:01;19.40;99.90
36850;DHT22;22783;51.034;3.726;2022-07-21T04:57:27;19.30;99.90
36850;DHT22;22783;51.034;3.726;2022-07-21T04:59:52;19.30;99.90
36850;DHT22;22783;51.034;3.726;2022-07-21T05:02:18;19.30;99.90
36850;DHT22;22783;51.034;3.726;2022-07-21T05:04:45;19.30;99.90
36850;DHT22;22783;51.034;3.726;2022-07-21T05:07:11;19.20;99.90
36850;DHT22;22783;51.034;3.726;2022-07-21T05:09:36;19.30;99.90
36850;DHT22;22783;51.034;3.726;2022-07-21T05:12:02;19.30;99.90
36850;DHT22;22783;51.034;3.726;2022-07-21T05:14:28;19.30;99.90
36850;DHT22;22783;51.034;3.726;2022-07-21T05:16:53;19.30;99.90
36850;DHT22;22783;51.034;3.726;2022-07-21T05:19:19;19.20;99.90
36850;DHT22;22783;51.034;3.726;2022-07-21T05:21:45;19.20;99.90
36850;DHT22;22783;51.034;3.726;2022-07-21T05:24:13;19.20;99.90
36850;DHT22;22783;51.034;3.726;2022-07-21T05:26:40;19.20;99.90
36850;DHT22;22783;51.034;3.726;2022-07-21T05:29:05;19.20;99.90
36850;DHT22;22783;51.034;3.726;2022-07-21T05:31:31;19.20;99.90
36850;DHT22;22783;51.034;3.726;2022-07-21T05:33:57;19.20;99.90
36850;DHT22;22783;51.034;3.726;2022-07-21T05:36:22;19.20;99.90
36850;DHT22;22783;51.034;3.726;2022-07-21T05:38:48;19.20;99.90
36850;DHT22;22783;51.034;3.726;2022-07-21T05:41:14;19.20;99.90
36850;DHT22;22783;51.034;3.726;2022-07-21T05:43:39;19.20;99.90
36850;DHT22;22783;51.034;3.726;2022-07-21T05:46:05;19.20;99.90
36850;DHT22;22783;51.034;3.726;2022-07-21T05:48:31;19.20;99.90
36850;DHT22;22783;51.034;3.726;2022-07-21T05:50:56;19.20;99.90
36850;DHT22;22783;51.034;3.726;2022-07-21T05:53:22;19.20;99.90
36850;DHT22;22783;51.034;3.726;2022-07-21T05:55:49;19.10;99.90
36850;DHT22;22783;51.034;3.726;2022-07-21T05:58:15;19.10;99.90
36850;DHT22;22783;51.034;3.726;2022-07-21T06:00:44;19.10;99.90
36850;DHT22;22783;51.034;3.726;2022-07-21T06:03:29;19.10;99.90
36850;DHT22;22783;51.034;3.726;2022-07-21T06:05:55;19.10;99.90
36850;DHT22;22783;51.034;3.726;2022-07-21T06:08:21;19.10;99.90
36850;DHT22;22783;51.034;3.726;2022-07-21T06:10:46;19.10;99.90
36850;DHT22;22783;51.034;3.726;2022-07-21T06:13:13;19.10;99.90
36850;DHT22;22783;51.034;3.726;2022-07-21T06:15:39;19.10;99.90
36850;DHT22;22783;51.034;3.726;2022-07-21T06:18:04;19.10;99.90
36850;DHT22;22783;51.034;3.726;2022-07-21T06:20:30;19.10;99.90
36850;DHT22;22783;51.034;3.726;2022-07-21T06:22:56;19.00;99.90
36850;DHT22;22783;51.034;3.726;2022-07-21T06:25:21;19.10;99.90
36850;DHT22;22783;51.034;3.726;2022-07-21T06:27:47;19.10;99.90
36850;DHT22;22783;51.034;3.726;2022-07-21T06:30:13;19.10;99.90
36850;DHT22;22783;51.034;3.726;2022-07-21T06:32:39;19.10;99.90
36850;DHT22;22783;51.034;3.726;2022-07-21T06:35:06;19.20;99.90
36850;DHT22;22783;51.034;3.726;2022-07-21T06:37:32;19.30;99.90
36850;DHT22;22783;51.034;3.726;2022-07-21T06:39:59;19.40;99.90
36850;DHT22;22783;51.034;3.726;2022-07-21T06:42:25;19.50;99.90
36850;DHT22;22783;51.034;3.726;2022-07-21T06:44:50;19.50;99.90
36850;DHT22;22783;51.034;3.726;2022-07-21T06:47:16;19.50;99.90
36850;DHT22;22783;51.034;3.726;2022-07-21T06:49:43;19.70;99.90
36850;DHT22;22783;51.034;3.726;2022-07-21T06:52:09;19.60;99.90
36850;DHT22;22783;51.034;3.726;2022-07-21T06:54:34;19.60;99.90
36850;DHT22;22783;51.034;3.726;2022-07-21T06:57:00;19.60;99.90
36850;DHT22;22783;51.034;3.726;2022-07-21T06:59:26;19.70;99.90
36850;DHT22;22783;51.034;3.726;2022-07-21T07:01:51;19.70;99.90
36850;DHT22;22783;51.034;3.726;2022-07-21T07:04:17;19.70;99.90
36850;DHT22;22783;51.034;3.726;2022-07-21T07:06:42;19.70;99.90
36850;DHT22;22783;51.034;3.726;2022-07-21T07:09:08;19.70;99.90
36850;DHT22;22783;51.034;3.726;2022-07-21T07:11:34;19.70;99.90
36850;DHT22;22783;51.034;3.726;2022-07-21T07:14:00;19.80;99.90
36850;DHT22;22783;51.034;3.726;2022-07-21T07:16:26;19.90;99.90
36850;DHT22;22783;51.034;3.726;2022-07-21T07:18:51;19.90;99.90
36850;DHT22;22783;51.034;3.726;2022-07-21T07:21:19;19.90;99.90
36850;DHT22;22783;51.034;3.726;2022-07-21T07:23:44;19.80;99.90
36850;DHT22;22783;51.034;3.726;2022-07-21T07:26:10;19.90;99.90
36850;DHT22;22783;51.034;3.726;2022-07-21T07:28:36;20.00;99.90
36850;DHT22;22783;51.034;3.726;2022-07-21T07:31:03;20.00;99.90
36850;DHT22;22783;51.034;3.726;2022-07-21T07:33:28;20.00;99.90
36850;DHT22;22783;51.034;3.726;2022-07-21T07:35:54;20.00;99.90
36850;DHT22;22783;51.034;3.726;2022-07-21T07:38:21;20.00;99.90
36850;DHT22;22783;51.034;3.726;2022-07-21T07:40:47;20.00;99.90
36850;DHT22;22783;51.034;3.726;2022-07-21T07:43:13;20.00;99.90
36850;DHT22;22783;51.034;3.726;2022-07-21T07:45:38;20.00;99.90
36850;DHT22;22783;51.034;3.726;2022-07-21T07:48:04;19.90;99.90
36850;DHT22;22783;51.034;3.726;2022-07-21T07:50:30;20.00;99.90
36850;DHT22;22783;51.034;3.726;2022-07-21T07:52:55;20.00;99.90
36850;DHT22;22783;51.034;3.726;2022-07-21T07:55:21;19.90;99.90
36850;DHT22;22783;51.034;3.726;2022-07-21T07:57:47;20.00;99.90
36850;DHT22;22783;51.034;3.726;2022-07-21T08:00:16;20.00;99.90
36850;DHT22;22783;51.034;3.726;2022-07-21T08:02:42;20.20;99.90
36850;DHT22;22783;51.034;3.726;2022-07-21T08:05:08;20.50;99.90
36850;DHT22;22783;51.034;3.726;2022-07-21T08:07:39;20.70;99.90
36850;DHT22;22783;51.034;3.726;2022-07-21T08:10:10;21.00;99.90
36850;DHT22;22783;51.034;3.726;2022-07-21T08:12:37;21.20;99.90
36850;DHT22;22783;51.034;3.726;2022-07-21T08:15:03;21.20;99.90
36850;DHT22;22783;51.034;3.726;2022-07-21T08:17:29;21.40;99.90
36850;DHT22;22783;51.034;3.726;2022-07-21T08:19:55;21.70;99.70
36850;DHT22;22783;51.034;3.726;2022-07-21T08:22:21;21.70;99.30
36850;DHT22;22783;51.034;3.726;2022-07-21T08:24:46;21.80;99.00
36850;DHT22;22783;51.034;3.726;2022-07-21T08:27:13;21.80;99.00
36850;DHT22;22783;51.034;3.726;2022-07-21T08:29:38;21.80;98.60
36850;DHT22;22783;51.034;3.726;2022-07-21T08:32:04;21.90;98.30
36850;DHT22;22783;51.034;3.726;2022-07-21T08:34:30;22.00;98.30
36850;DHT22;22783;51.034;3.726;2022-07-21T08:36:57;22.10;98.00
36850;DHT22;22783;51.034;3.726;2022-07-21T08:39:22;22.20;97.60
36850;DHT22;22783;51.034;3.726;2022-07-21T08:41:48;22.20;97.40
36850;DHT22;22783;51.034;3.726;2022-07-21T08:44:14;22.00;97.80
36850;DHT22;22783;51.034;3.726;2022-07-21T08:46:41;21.80;97.90
36850;DHT22;22783;51.034;3.726;2022-07-21T08:49:09;21.80;98.30
36850;DHT22;22783;51.034;3.726;2022-07-21T08:51:35;21.70;98.60
36850;DHT22;22783;51.034;3.726;2022-07-21T08:54:01;21.90;97.90
36850;DHT22;22783;51.034;3.726;2022-07-21T08:56:27;22.00;97.80
36850;DHT22;22783;51.034;3.726;2022-07-21T08:58:53;21.90;97.30
36850;DHT22;22783;51.034;3.726;2022-07-21T09:01:19;21.50;98.10
36850;DHT22;22783;51.034;3.726;2022-07-21T09:03:45;21.00;99.30
36850;DHT22;22783;51.034;3.726;2022-07-21T09:06:13;21.00;99.80
36850;DHT22;22783;51.034;3.726;2022-07-21T09:08:48;21.00;99.70
36850;DHT22;22783;51.034;3.726;2022-07-21T09:11:15;21.00;99.40
36850;DHT22;22783;51.034;3.726;2022-07-21T09:13:43;21.00;99.70
36850;DHT22;22783;51.034;3.726;2022-07-21T09:16:09;21.10;99.00
36850;DHT22;22783;51.034;3.726;2022-07-21T09:18:49;21.10;99.00
36850;DHT22;22783;51.034;3.726;2022-07-21T09:21:17;21.20;99.40
36850;DHT22;22783;51.034;3.726;2022-07-21T09:23:42;21.30;99.10
36850;DHT22;22783;51.034;3.726;2022-07-21T09:26:08;21.20;98.60
36850;DHT22;22783;51.034;3.726;2022-07-21T09:28:35;20.90;99.40
36850;DHT22;22783;51.034;3.726;2022-07-21T09:31:06;20.90;99.20
36850;DHT22;22783;51.034;3.726;2022-07-21T09:33:38;20.90;99.80
36850;DHT22;22783;51.034;3.726;2022-07-21T09:36:07;20.80;99.90
36850;DHT22;22783;51.034;3.726;2022-07-21T09:38:38;20.90;99.90
36850;DHT22;22783;51.034;3.726;2022-07-21T09:41:12;21.00;99.50
36850;DHT22;22783;51.034;3.726;2022-07-21T09:43:41;21.00;99.40
36850;DHT22;22783;51.034;3.726;2022-07-21T09:46:19;21.10;99.60
36850;DHT22;22783;51.034;3.726;2022-07-21T09:48:47;21.20;99.30
36850;DHT22;22783;51.034;3.726;2022-07-21T09:51:30;21.20;99.20
36850;DHT22;22783;51.034;3.726;2022-07-21T09:54:00;21.40;99.00
36850;DHT22;22783;51.034;3.726;2022-07-21T09:56:28;21.50;98.20
36850;DHT22;22783;51.034;3.726;2022-07-21T09:58:55;21.50;98.20
36850;DHT22;22783;51.034;3.726;2022-07-21T10:01:22;21.60;98.10
36850;DHT22;22783;51.034;3.726;2022-07-21T10:03:49;21.70;98.00
36850;DHT22;22783;51.034;3.726;2022-07-21T10:06:19;21.60;97.30
36850;DHT22;22783;51.034;3.726;2022-07-21T10:08:45;21.40;97.80
36850;DHT22;22783;51.034;3.726;2022-07-21T10:11:12;21.40;98.10
36850;DHT22;22783;51.034;3.726;2022-07-21T10:13:38;21.20;98.40
36850;DHT22;22783;51.034;3.726;2022-07-21T10:16:07;21.10;98.40
36850;DHT22;22783;51.034;3.726;2022-07-21T10:19:21;21.00;99.00
36850;DHT22;22783;51.034;3.726;2022-07-21T10:21:29;20.90;99.20
36850;DHT22;22783;51.034;3.726;2022-07-21T10:23:56;21.00;98.90
36850;DHT22;22783;51.034;3.726;2022-07-21T10:26:22;21.10;98.70
36850;DHT22;22783;51.034;3.726;2022-07-21T10:28:48;21.30;98.30
36850;DHT22;22783;51.034;3.726;2022-07-21T10:31:34;21.20;98.10
36850;DHT22;22783;51.034;3.726;2022-07-21T10:34:06;21.10;98.10
36850;DHT22;22783;51.034;3.726;2022-07-21T10:41:39;20.80;99.00
36850;DHT22;22783;51.034;3.726;2022-07-21T10:47:21;20.70;99.30
36850;DHT22;22783;51.034;3.726;2022-07-21T10:50:02;20.90;99.00
36850;DHT22;22783;51.034;3.726;2022-07-21T10:55:14;21.10;98.50
36850;DHT22;22783;51.034;3.726;2022-07-21T10:57:44;21.20;97.90
36850;DHT22;22783;51.034;3.726;2022-07-21T11:00:24;21.20;98.30
36850;DHT22;22783;51.034;3.726;2022-07-21T11:02:57;21.50;97.40
36850;DHT22;22783;51.034;3.726;2022-07-21T11:05:24;21.80;96.90
36850;DHT22;22783;51.034;3.726;2022-07-21T11:08:17;21.90;96.20
36850;DHT22;22783;51.034;3.726;2022-07-21T11:10:50;22.00;96.20
36850;DHT22;22783;51.034;3.726;2022-07-21T11:13:17;22.20;95.80
36850;DHT22;22783;51.034;3.726;2022-07-21T11:15:47;22.10;95.50
36850;DHT22;22783;51.034;3.726;2022-07-21T11:18:22;21.90;95.90
36850;DHT22;22783;51.034;3.726;2022-07-21T11:21:11;21.50;96.60
36850;DHT22;22783;51.034;3.726;2022-07-21T11:26:08;21.40;97.20
36850;DHT22;22783;51.034;3.726;2022-07-21T11:28:33;21.60;97.10
36850;DHT22;22783;51.034;3.726;2022-07-21T11:31:10;21.60;96.90
36850;DHT22;22783;51.034;3.726;2022-07-21T11:33:38;21.40;96.80
36850;DHT22;22783;51.034;3.726;2022-07-21T11:36:04;21.40;97.50
36850;DHT22;22783;51.034;3.726;2022-07-21T11:38:30;21.50;97.40
36850;DHT22;22783;51.034;3.726;2022-07-21T11:41:16;21.40;97.10
36850;DHT22;22783;51.034;3.726;2022-07-21T11:43:44;21.30;97.20
36850;DHT22;22783;51.034;3.726;2022-07-21T11:46:10;21.30;97.00
36850;DHT22;22783;51.034;3.726;2022-07-21T11:48:36;21.00;97.60
36850;DHT22;22783;51.034;3.726;2022-07-21T11:51:03;21.00;98.20
36850;DHT22;22783;51.034;3.726;2022-07-21T11:53:29;21.10;98.10
36850;DHT22;22783;51.034;3.726;2022-07-21T11:55:56;21.30;97.60
36850;DHT22;22783;51.034;3.726;2022-07-21T11:58:22;21.60;96.50
36850;DHT22;22783;51.034;3.726;2022-07-21T12:00:48;21.80;96.20
36850;DHT22;22783;51.034;3.726;2022-07-21T12:03:15;21.70;96.50
36850;DHT22;22783;51.034;3.726;2022-07-21T12:05:41;21.70;96.10
36850;DHT22;22783;51.034;3.726;2022-07-21T12:08:07;21.80;95.70
36850;DHT22;22783;51.034;3.726;2022-07-21T12:10:33;21.70;95.90
36850;DHT22;22783;51.034;3.726;2022-07-21T12:13:05;21.40;96.60
36850;DHT22;22783;51.034;3.726;2022-07-21T12:15:35;21.60;96.60
36850;DHT22;22783;51.034;3.726;2022-07-21T12:18:04;21.70;96.00
36850;DHT22;22783;51.034;3.726;2022-07-21T12:20:33;21.60;96.10
36850;DHT22;22783;51.034;3.726;2022-07-21T12:23:26;21.50;96.30
36850;DHT22;22783;51.034;3.726;2022-07-21T12:25:53;21.50;95.90
36850;DHT22;22783;51.034;3.726;2022-07-21T12:28:20;21.40;96.30
36850;DHT22;22783;51.034;3.726;2022-07-21T12:30:50;21.20;96.30
36850;DHT22;22783;51.034;3.726;2022-07-21T12:33:18;21.30;96.40
36850;DHT22;22783;51.034;3.726;2022-07-21T12:35:59;21.40;96.30
36850;DHT22;22783;51.034;3.726;2022-07-21T12:41:01;21.30;96.20
36850;DHT22;22783;51.034;3.726;2022-07-21T12:43:27;21.40;96.10
36850;DHT22;22783;51.034;3.726;2022-07-21T12:45:58;21.30;96.10
36850;DHT22;22783;51.034;3.726;2022-07-21T12:48:32;21.20;96.10
36850;DHT22;22783;51.034;3.726;2022-07-21T12:53:35;21.30;96.50
36850;DHT22;22783;51.034;3.726;2022-07-21T12:56:01;21.30;96.40
36850;DHT22;22783;51.034;3.726;2022-07-21T12:58:27;20.90;96.80
36850;DHT22;22783;51.034;3.726;2022-07-21T13:00:53;21.00;96.80
36850;DHT22;22783;51.034;3.726;2022-07-21T13:03:19;20.80;97.30
36850;DHT22;22783;51.034;3.726;2022-07-21T13:05:46;20.70;97.30
36850;DHT22;22783;51.034;3.726;2022-07-21T13:08:13;20.80;97.40
36850;DHT22;22783;51.034;3.726;2022-07-21T13:10:39;20.90;97.20
36850;DHT22;22783;51.034;3.726;2022-07-21T13:13:05;21.00;96.90
36850;DHT22;22783;51.034;3.726;2022-07-21T13:15:31;21.20;96.40
36850;DHT22;22783;51.034;3.726;2022-07-21T13:17:57;21.50;96.00
36850;DHT22;22783;51.034;3.726;2022-07-21T13:20:22;21.80;95.20
36850;DHT22;22783;51.034;3.726;2022-07-21T13:22:48;21.60;95.00
36850;DHT22;22783;51.034;3.726;2022-07-21T13:25:14;21.20;95.80
36850;DHT22;22783;51.034;3.726;2022-07-21T13:27:41;21.00;96.30
36850;DHT22;22783;51.034;3.726;2022-07-21T13:30:07;21.10;96.50
36850;DHT22;22783;51.034;3.726;2022-07-21T13:32:34;21.30;95.90
36850;DHT22;22783;51.034;3.726;2022-07-21T13:35:00;21.30;95.60
36850;DHT22;22783;51.034;3.726;2022-07-21T13:37:26;21.70;94.70
36850;DHT22;22783;51.034;3.726;2022-07-21T13:39:52;21.90;94.50
36850;DHT22;22783;51.034;3.726;2022-07-21T13:42:17;21.90;94.30
36850;DHT22;22783;51.034;3.726;2022-07-21T13:44:43;21.80;94.50
36850;DHT22;22783;51.034;3.726;2022-07-21T13:47:09;21.60;94.70
36850;DHT22;22783;51.034;3.726;2022-07-21T13:49:35;21.60;94.90
36850;DHT22;22783;51.034;3.726;2022-07-21T13:52:01;21.70;94.60
36850;DHT22;22783;51.034;3.726;2022-07-21T13:54:27;21.70;94.20
36850;DHT22;22783;51.034;3.726;2022-07-21T13:56:53;21.60;94.40
36850;DHT22;22783;51.034;3.726;2022-07-21T13:59:21;21.70;94.30
36850;DHT22;22783;51.034;3.726;2022-07-21T14:01:47;21.90;93.90
36850;DHT22;22783;51.034;3.726;2022-07-21T14:04:13;21.70;94.40
36850;DHT22;22783;51.034;3.726;2022-07-21T14:06:39;21.80;94.30
36850;DHT22;22783;51.034;3.726;2022-07-21T14:09:04;21.70;94.50
36850;DHT22;22783;51.034;3.726;2022-07-21T14:11:30;21.80;94.30
36850;DHT22;22783;51.034;3.726;2022-07-21T14:13:56;21.70;94.60
36850;DHT22;22783;51.034;3.726;2022-07-21T14:16:22;21.70;94.50
36850;DHT22;22783;51.034;3.726;2022-07-21T14:18:47;21.90;94.00
36850;DHT22;22783;51.034;3.726;2022-07-21T14:21:13;22.20;93.10
36850;DHT22;22783;51.034;3.726;2022-07-21T14:23:39;22.50;92.70
36850;DHT22;22783;51.034;3.726;2022-07-21T14:26:05;22.70;92.00
36850;DHT22;22783;51.034;3.726;2022-07-21T14:28:30;22.60;92.10
36850;DHT22;22783;51.034;3.726;2022-07-21T14:30:56;21.80;93.40
36850;DHT22;22783;51.034;3.726;2022-07-21T14:33:22;21.70;94.10
36850;DHT22;22783;51.034;3.726;2022-07-21T14:35:48;21.70;94.20
36850;DHT22;22783;51.034;3.726;2022-07-21T14:38:14;21.60;94.30
36850;DHT22;22783;51.034;3.726;2022-07-21T14:40:41;21.60;94.70
36850;DHT22;22783;51.034;3.726;2022-07-21T14:43:06;21.70;94.40
36850;DHT22;22783;51.034;3.726;2022-07-21T14:45:32;22.10;93.40
36850;DHT22;22783;51.034;3.726;2022-07-21T14:47:58;22.20;93.30
36850;DHT22;22783;51.034;3.726;2022-07-21T14:50:26;22.10;93.10
36850;DHT22;22783;51.034;3.726;2022-07-21T14:52:53;22.20;93.10
36850;DHT22;22783;51.034;3.726;2022-07-21T14:55:19;22.10;93.40
36850;DHT22;22783;51.034;3.726;2022-07-21T14:57:48;22.60;92.30
36850;DHT22;22783;51.034;3.726;2022-07-21T15:00:14;22.40;92.60
36850;DHT22;22783;51.034;3.726;2022-07-21T15:02:39;22.40;92.60
36850;DHT22;22783;51.034;3.726;2022-07-21T15:05:05;22.00;93.40
36850;DHT22;22783;51.034;3.726;2022-07-21T15:07:31;21.80;94.20
36850;DHT22;22783;51.034;3.726;2022-07-21T15:09:57;22.00;94.10
36850;DHT22;22783;51.034;3.726;2022-07-21T15:12:23;22.30;93.20
36850;DHT22;22783;51.034;3.726;2022-07-21T15:14:49;22.10;93.40
36850;DHT22;22783;51.034;3.726;2022-07-21T15:17:15;22.30;92.90
36850;DHT22;22783;51.034;3.726;2022-07-21T15:19:42;22.50;92.30
36850;DHT22;22783;51.034;3.726;2022-07-21T15:22:08;22.80;91.60
36850;DHT22;22783;51.034;3.726;2022-07-21T15:24:34;22.60;91.50
36850;DHT22;22783;51.034;3.726;2022-07-21T15:27:00;22.00;92.60
36850;DHT22;22783;51.034;3.726;2022-07-21T15:29:26;21.80;93.60
36850;DHT22;22783;51.034;3.726;2022-07-21T15:31:52;21.30;94.50
36850;DHT22;22783;51.034;3.726;2022-07-21T15:34:18;21.20;95.00
36850;DHT22;22783;51.034;3.726;2022-07-21T15:36:43;21.20;94.70
36850;DHT22;22783;51.034;3.726;2022-07-21T15:39:09;21.40;94.40
36850;DHT22;22783;51.034;3.726;2022-07-21T15:41:37;21.70;94.00
36850;DHT22;22783;51.034;3.726;2022-07-21T15:44:04;21.60;93.60
36850;DHT22;22783;51.034;3.726;2022-07-21T15:46:30;21.60;93.70
36850;DHT22;22783;51.034;3.726;2022-07-21T15:48:56;21.50;93.80
36850;DHT22;22783;51.034;3.726;2022-07-21T15:51:22;21.60;94.00